Private Wetterstation Wechselburg
Wetterdaten: Woche 26.09.22 - 02.10.22 (KW39)
Datum Zeit Temp. +2m Bodentemp. Temp.+5cm Temp. Wind Windchill X Diff Temp. Feuchte +2m Feuchte +5cm Luftdruck Regen Wind Richtung Sonnenschein Taupunkt Windchill Windben
26.09.2022 00:00 11,5 C 16,0 C 11,1 C 11,5 C 11,4 C 0,0 C 88 % 93 % 1008,8 hPa 0,7 l/m 0,1 km/h (0 Bft) N 0,00 h 9,6 C 11,4 C 0,0 km/h (0 Bft)
26.09.2022 01:00 11,2 C 16,0 C 11,0 C 11,4 C 11,4 C 0,2 C 88 % 94 % 1008,7 hPa 0,0 l/m 0,0 km/h (0 Bft) N 0,00 h 9,3 C 11,4 C 0,0 km/h (0 Bft)
26.09.2022 02:00 10,9 C 15,9 C 11,1 C 11,3 C 11,3 C 0,5 C 88 % 94 % 1008,3 hPa 0,0 l/m 0,0 km/h (0 Bft) N 0,00 h 9,0 C 11,3 C 0,0 km/h (0 Bft)
26.09.2022 03:00 10,5 C 15,9 C 10,8 C 11,0 C 11,0 C 0,6 C 88 % 94 % 1008,1 hPa 0,0 l/m 0,0 km/h (0 Bft) N 0,00 h 8,5 C 11,0 C 0,0 km/h (0 Bft)
26.09.2022 04:00 9,9 C 15,9 C 10,4 C 10,7 C 10,7 C 0,7 C 88 % 94 % 1007,4 hPa 0,0 l/m 0,0 km/h (0 Bft) N 0,00 h 8,0 C 10,7 C 0,0 km/h (0 Bft)
26.09.2022 05:00 9,7 C 15,9 C 10,4 C 10,8 C 10,8 C 1,1 C 88 % 94 % 1007,3 hPa 0,7 l/m 0,0 km/h (0 Bft) N 0,00 h 7,8 C 10,8 C 0,0 km/h (0 Bft)
26.09.2022 06:00 9,6 C 15,9 C 10,5 C 10,9 C 10,9 C 1,3 C 88 % 94 % 1006,9 hPa 0,0 l/m 0,0 km/h (0 Bft) N 0,00 h 7,7 C 10,9 C 0,0 km/h (0 Bft)
26.09.2022 07:00 9,5 C 15,8 C 10,5 C 10,9 C 10,9 C 1,4 C 88 % 94 % 1006,1 hPa 0,0 l/m 0,0 km/h (0 Bft) N 0,75 h 7,6 C 10,9 C 0,0 km/h (0 Bft)
26.09.2022 08:00 9,6 C 15,8 C 10,5 C 11,5 C 11,5 C 1,9 C 88 % 94 % 1006,1 hPa 0,0 l/m 0,0 km/h (0 Bft) N 0,17 h 7,7 C 11,5 C 0,0 km/h (0 Bft)
26.09.2022 09:00 9,6 C 15,8 C 10,6 C 11,8 C 11,8 C 2,2 C 88 % 94 % 1005,9 hPa 0,0 l/m 1,1 km/h (1 Bft) S 0,00 h 7,7 C 11,8 C 3,2 km/h (1 Bft)
26.09.2022 10:00 9,8 C 15,5 C 10,9 C 13,5 C 13,5 C 3,7 C 88 % 94 % 1005,8 hPa 0,0 l/m 0,7 km/h (0 Bft) O-SO 0,92 h 7,9 C 13,5 C 1,4 km/h (1 Bft)
26.09.2022 11:00 10,8 C 15,2 C 11,5 C 14,3 C 14,3 C 3,5 C 88 % 94 % 1005,6 hPa 0,0 l/m 0,6 km/h (0 Bft) S-SO 0,83 h 8,8 C 14,3 C 1,4 km/h (1 Bft)
26.09.2022 12:00 13,6 C 15,1 C 13,6 C 17,7 C 17,7 C 4,1 C 82 % 90 % 1005,6 hPa 0,0 l/m 1,4 km/h (1 Bft) S-SO 0,48 h 10,6 C 17,7 C 2,9 km/h (1 Bft)
26.09.2022 13:00 15,2 C 15,1 C 14,4 C 20,6 C 20,6 C 5,3 C 74 % 85 % 1004,8 hPa 0,0 l/m 0,6 km/h (0 Bft) S-SO 0,92 h 10,6 C 20,6 C 0,6 km/h (0 Bft)
26.09.2022 14:00 15,9 C 15,1 C 15,2 C 19,4 C 19,4 C 3,6 C 65 % 75 % 1004,4 hPa 0,0 l/m 1,3 km/h (1 Bft) S 0,50 h 9,3 C 19,4 C 6,5 km/h (2 Bft)
26.09.2022 15:00 15,9 C 15,1 C 15,3 C 18,2 C 18,2 C 2,3 C 61 % 70 % 1003,9 hPa 0,0 l/m 1,4 km/h (1 Bft) S 0,00 h 8,5 C 18,2 C 3,8 km/h (1 Bft)
26.09.2022 16:00 15,0 C 15,1 C 14,4 C 15,5 C 15,4 C 0,6 C 64 % 71 % 1003,5 hPa 0,0 l/m 1,0 km/h (0 Bft) O-SO 0,00 h 8,2 C 15,4 C 2,3 km/h (1 Bft)
26.09.2022 17:00 14,1 C 15,1 C 13,1 C 14,3 C 14,3 C 0,2 C 72 % 80 % 1002,7 hPa 0,0 l/m 0,1 km/h (0 Bft) N 0,00 h 9,2 C 14,3 C 0,0 km/h (0 Bft)
26.09.2022 18:00 13,1 C 15,2 C 12,0 C 13,0 C 12,6 C 0,1 C 76 % 83 % 1002,3 hPa 0,0 l/m 0,0 km/h (0 Bft) N 0,00 h 8,9 C 12,6 C 0,0 km/h (0 Bft)
26.09.2022 19:00 11,8 C 15,2 C 10,5 C 11,6 C 11,0 C 0,0 C 78 % 86 % 1002,0 hPa 0,0 l/m 0,1 km/h (0 Bft) N 0,00 h 8,1 C 11,0 C 0,0 km/h (0 Bft)
26.09.2022 20:00 11,1 C 15,1 C 9,7 C 10,8 C 10,3 C 0,0 C 77 % 86 % 1001,8 hPa 0,0 l/m 0,0 km/h (0 Bft) N 0,00 h 7,3 C 10,3 C 0,0 km/h (0 Bft)
26.09.2022 21:00 11,1 C 15,1 C 10,0 C 11,1 C 11,0 C 0,1 C 78 % 87 % 1001,8 hPa 0,0 l/m 0,2 km/h (0 Bft) N 0,00 h 7,5 C 11,0 C 0,7 km/h (0 Bft)
26.09.2022 22:00 11,9 C 15,0 C 10,8 C 11,9 C 11,9 C 0,1 C 75 % 84 % 1001,4 hPa 0,0 l/m 0,5 km/h (0 Bft) N 0,00 h 7,7 C 11,9 C 3,0 km/h (1 Bft)
26.09.2022 23:00 11,6 C 14,9 C 10,6 C 11,5 C 11,3 C 0,0 C 76 % 84 % 1000,7 hPa 0,0 l/m 0,0 km/h (0 Bft) N 0,00 h 7,5 C 11,3 C 0,0 km/h (0 Bft)
27.09.2022 00:00 11,3 C 14,9 C 10,5 C 11,2 C 11,1 C 0,0 C 78 % 84 % 999,6 hPa 0,0 l/m 0,0 km/h (0 Bft) N 0,00 h 7,5 C 11,1 C 0,0 km/h (0 Bft)
27.09.2022 01:00 11,4 C 14,9 C 10,6 C 11,5 C 11,5 C 0,1 C 78 % 84 % 998,6 hPa 0,0 l/m 0,0 km/h (0 Bft) N 0,00 h 7,7 C 11,5 C 0,0 km/h (0 Bft)
27.09.2022 02:00 11,7 C 14,8 C 10,8 C 11,7 C 11,7 C 0,1 C 77 % 84 % 998,2 hPa 0,0 l/m 0,0 km/h (0 Bft) N 0,00 h 7,7 C 11,7 C 0,2 km/h (0 Bft)
27.09.2022 03:00 11,7 C 14,8 C 10,8 C 11,7 C 11,7 C 0,0 C 77 % 84 % 997,2 hPa 0,0 l/m 0,0 km/h (0 Bft) N 0,00 h 7,7 C 11,7 C 0,4 km/h (0 Bft)
27.09.2022 04:00 11,6 C 14,8 C 10,6 C 11,5 C 11,4 C 0,0 C 78 % 85 % 996,6 hPa 0,0 l/m 0,1 km/h (0 Bft) N 0,00 h 7,8 C 11,4 C 0,6 km/h (0 Bft)
27.09.2022 05:00 11,2 C 15,0 C 10,1 C 10,8 C 10,0 C 0,0 C 81 % 88 % 996,1 hPa 0,0 l/m 0,0 km/h (0 Bft) N 0,00 h 8,0 C 10,0 C 0,0 km/h (0 Bft)
27.09.2022 06:00 10,5 C 15,2 C 9,5 C 10,2 C 9,6 C 0,0 C 84 % 91 % 995,8 hPa 0,7 l/m 0,1 km/h (0 Bft) N 0,00 h 7,9 C 9,6 C 0,7 km/h (0 Bft)
27.09.2022 07:00 10,1 C 15,2 C 9,3 C 9,9 C 9,5 C 0,0 C 86 % 92 % 995,7 hPa 0,7 l/m 0,0 km/h (0 Bft) N 0,00 h 7,8 C 9,5 C 0,0 km/h (0 Bft)
27.09.2022 08:00 10,3 C 15,2 C 9,8 C 10,3 C 10,2 C 0,0 C 87 % 93 % 995,4 hPa 0,0 l/m 0,0 km/h (0 Bft) N 0,00 h 8,2 C 10,2 C 0,0 km/h (0 Bft)
27.09.2022 09:00 10,8 C 15,1 C 10,5 C 11,1 C 11,1 C 0,3 C 87 % 93 % 995,1 hPa 0,0 l/m 1,5 km/h (1 Bft) S 0,00 h 8,8 C 11,1 C 3,6 km/h (1 Bft)
27.09.2022 10:00 11,5 C 14,9 C 11,4 C 13,1 C 13,1 C 1,6 C 86 % 92 % 995,4 hPa 0,0 l/m 2,1 km/h (1 Bft) S 0,00 h 9,2 C 13,1 C 6,4 km/h (2 Bft)
27.09.2022 11:00 11,1 C 14,9 C 11,0 C 11,6 C 11,6 C 0,5 C 84 % 90 % 996,1 hPa 0,0 l/m 0,9 km/h (0 Bft) SW 0,00 h 8,5 C 11,6 C 2,8 km/h (1 Bft)
27.09.2022 12:00 10,7 C 14,8 C 10,9 C 10,9 C 10,8 C 0,2 C 84 % 90 % 996,7 hPa 0,0 l/m 0,2 km/h (0 Bft) N 0,00 h 8,2 C 10,8 C 1,0 km/h (0 Bft)
27.09.2022 13:00 10,7 C 14,9 C 10,6 C 10,7 C 10,7 C 0,1 C 85 % 90 % 997,3 hPa 2,1 l/m 0,3 km/h (0 Bft) N 0,00 h 8,3 C 10,7 C 1,6 km/h (1 Bft)
27.09.2022 14:00 10,8 C 15,0 C 11,0 C 12,0 C 12,0 C 1,2 C 87 % 92 % 997,5 hPa 0,7 l/m 0,4 km/h (0 Bft) N 0,00 h 8,8 C 12,0 C 1,9 km/h (1 Bft)
27.09.2022 15:00 10,2 C 15,0 C 9,8 C 10,4 C 10,2 C 0,3 C 86 % 92 % 997,8 hPa 2,1 l/m 0,3 km/h (0 Bft) N 0,00 h 8,0 C 10,2 C 2,2 km/h (1 Bft)
27.09.2022 16:00 10,0 C 14,9 C 9,8 C 10,1 C 10,0 C 0,1 C 87 % 93 % 997,9 hPa 0,0 l/m 0,5 km/h (0 Bft) SW 0,00 h 8,0 C 10,0 C 2,8 km/h (1 Bft)
27.09.2022 17:00 9,9 C 14,8 C 9,6 C 9,9 C 9,8 C 0,1 C 86 % 93 % 998,2 hPa 0,0 l/m 0,0 km/h (0 Bft) N 0,00 h 7,7 C 9,8 C 0,0 km/h (0 Bft)
27.09.2022 18:00 9,6 C 14,9 C 9,0 C 9,5 C 9,3 C 0,0 C 86 % 94 % 998,8 hPa 0,0 l/m 0,1 km/h (0 Bft) N 0,00 h 7,4 C 9,3 C 0,3 km/h (0 Bft)
27.09.2022 19:00 9,1 C 14,8 C 8,4 C 8,8 C 8,3 C 0,0 C 87 % 94 % 999,2 hPa 0,0 l/m 1,5 km/h (1 Bft) S 0,00 h 7,0 C 8,3 C 1,9 km/h (1 Bft)
27.09.2022 20:00 8,4 C 14,7 C 7,8 C 8,2 C 7,8 C 0,0 C 87 % 94 % 999,6 hPa 2,7 l/m 0,6 km/h (0 Bft) S-SW 0,00 h 6,4 C 7,8 C 0,5 km/h (0 Bft)
27.09.2022 21:00 7,8 C 14,6 C 7,0 C 7,6 C 7,0 C 0,0 C 88 % 94 % 999,2 hPa 0,0 l/m 0,0 km/h (0 Bft) N 0,00 h 5,9 C 7,0 C 0,2 km/h (0 Bft)
27.09.2022 22:00 7,5 C 14,6 C 6,8 C 7,3 C 6,9 C 0,0 C 88 % 94 % 999,2 hPa 0,0 l/m 0,8 km/h (0 Bft) S 0,00 h 5,7 C 6,9 C 2,3 km/h (1 Bft)
27.09.2022 23:00 7,3 C 14,5 C 6,9 C 7,2 C 7,1 C 0,0 C 88 % 94 % 999,5 hPa 0,0 l/m 2,0 km/h (1 Bft) NO 0,00 h 5,4 C 7,1 C 2,4 km/h (1 Bft)
28.09.2022 00:00 7,2 C 14,3 C 7,1 C 7,5 C 7,5 C 0,3 C 88 % 95 % 999,7 hPa 0,0 l/m 2,3 km/h (1 Bft) S 0,00 h 5,4 C 7,5 C 3,0 km/h (1 Bft)
28.09.2022 01:00 7,1 C 14,2 C 7,0 C 7,3 C 7,3 C 0,3 C 88 % 94 % 999,6 hPa 0,0 l/m 1,3 km/h (1 Bft) S 0,00 h 5,2 C 7,3 C 2,9 km/h (1 Bft)
28.09.2022 02:00 6,9 C 14,2 C 7,0 C 7,6 C 7,6 C 0,7 C 88 % 94 % 999,5 hPa 0,0 l/m 0,6 km/h (0 Bft) N 0,00 h 5,1 C 7,6 C 0,6 km/h (0 Bft)
28.09.2022 03:00 6,7 C 14,1 C 7,1 C 7,7 C 7,7 C 0,9 C 88 % 95 % 999,2 hPa 0,0 l/m 0,2 km/h (0 Bft) N 0,00 h 4,9 C 7,7 C 0,1 km/h (0 Bft)
28.09.2022 04:00 6,6 C 14,1 C 6,7 C 7,2 C 7,1 C 0,7 C 88 % 95 % 998,7 hPa 0,0 l/m 0,1 km/h (0 Bft) N 0,00 h 4,7 C 7,1 C 0,0 km/h (0 Bft)
28.09.2022 05:00 6,0 C 14,1 C 6,1 C 6,1 C 6,0 C 0,1 C 88 % 95 % 998,2 hPa 0,0 l/m 0,0 km/h (0 Bft) N 0,00 h 4,2 C 6,0 C 0,0 km/h (0 Bft)
28.09.2022 06:00 5,8 C 14,0 C 6,1 C 6,0 C 6,0 C 0,3 C 88 % 94 % 997,5 hPa 0,0 l/m 0,0 km/h (0 Bft) N 0,00 h 4,0 C 6,0 C 0,0 km/h (0 Bft)
28.09.2022 07:00 5,5 C 14,0 C 6,2 C 6,1 C 6,1 C 0,6 C 89 % 94 % 996,9 hPa 0,0 l/m 0,0 km/h (0 Bft) N 0,33 h 3,9 C 6,1 C 0,0 km/h (0 Bft)
28.09.2022 08:00 5,5 C 14,0 C 6,7 C 6,9 C 6,9 C 1,3 C 89 % 94 % 996,6 hPa 0,0 l/m 0,0 km/h (0 Bft) N 0,00 h 3,8 C 6,9 C 0,0 km/h (0 Bft)
28.09.2022 09:00 6,0 C 14,0 C 7,4 C 7,9 C 7,9 C 1,8 C 89 % 94 % 996,7 hPa 0,7 l/m 0,0 km/h (0 Bft) N 0,00 h 4,3 C 7,9 C 0,0 km/h (0 Bft)
28.09.2022 10:00 6,2 C 13,9 C 7,7 C 8,0 C 8,0 C 1,8 C 89 % 94 % 996,4 hPa 2,1 l/m 0,9 km/h (0 Bft) O-NO 0,00 h 4,5 C 8,0 C 1,5 km/h (1 Bft)
28.09.2022 11:00 6,3 C 13,9 C 7,6 C 8,0 C 8,0 C 1,7 C 88 % 94 % 996,3 hPa 2,7 l/m 0,8 km/h (0 Bft) NO 0,00 h 4,5 C 8,0 C 0,8 km/h (0 Bft)
28.09.2022 12:00 6,8 C 13,9 C 8,6 C 9,6 C 9,6 C 2,8 C 89 % 94 % 996,4 hPa 0,7 l/m 0,7 km/h (0 Bft) NW 0,17 h 5,2 C 9,6 C 0,7 km/h (0 Bft)
28.09.2022 13:00 7,2 C 13,9 C 8,9 C 9,9 C 9,9 C 2,6 C 88 % 94 % 996,4 hPa 0,0 l/m 0,1 km/h (0 Bft) N 0,17 h 5,4 C 9,9 C 0,2 km/h (0 Bft)
28.09.2022 14:00 7,5 C 13,8 C 9,6 C 11,3 C 11,3 C 3,8 C 88 % 94 % 996,8 hPa 0,0 l/m 0,2 km/h (0 Bft) N 0,92 h 5,7 C 11,3 C 0,2 km/h (0 Bft)
28.09.2022 15:00 7,9 C 13,7 C 9,8 C 13,4 C 13,4 C 5,5 C 89 % 95 % 997,2 hPa 0,0 l/m 0,6 km/h (0 Bft) NO 1,00 h 6,1 C 13,4 C 2,6 km/h (1 Bft)
28.09.2022 16:00 8,7 C 13,6 C 9,9 C 13,0 C 13,0 C 4,3 C 88 % 95 % 997,8 hPa 0,0 l/m 0,2 km/h (0 Bft) N 0,50 h 6,9 C 13,0 C 0,0 km/h (0 Bft)
28.09.2022 17:00 9,4 C 13,5 C 9,8 C 11,3 C 11,3 C 1,9 C 88 % 95 % 998,4 hPa 0,0 l/m 0,0 km/h (0 Bft) N 0,08 h 7,5 C 11,3 C 0,0 km/h (0 Bft)
28.09.2022 18:00 9,4 C 13,8 C 9,1 C 9,9 C 9,8 C 0,6 C 88 % 95 % 998,7 hPa 0,0 l/m 0,0 km/h (0 Bft) N 0,33 h 7,5 C 9,8 C 0,0 km/h (0 Bft)
28.09.2022 19:00 8,5 C 13,8 C 7,8 C 8,3 C 7,7 C 0,0 C 88 % 95 % 999,5 hPa 0,0 l/m 0,0 km/h (0 Bft) N 0,00 h 6,7 C 7,7 C 0,0 km/h (0 Bft)
28.09.2022 20:00 8,3 C 13,9 C 6,8 C 7,7 C 6,5 C 0,0 C 88 % 95 % 999,7 hPa 0,0 l/m 0,0 km/h (0 Bft) N 0,00 h 6,4 C 6,5 C 0,0 km/h (0 Bft)
28.09.2022 21:00 8,3 C 13,9 C 6,6 C 7,7 C 6,6 C 0,0 C 88 % 95 % 1000,1 hPa 0,0 l/m 0,0 km/h (0 Bft) N 0,00 h 6,4 C 6,6 C 0,0 km/h (0 Bft)
28.09.2022 22:00 8,3 C 13,8 C 5,7 C 7,4 C 5,5 C 0,0 C 88 % 95 % 1000,5 hPa 0,0 l/m 0,0 km/h (0 Bft) N 0,00 h 6,4 C 5,5 C 0,0 km/h (0 Bft)
28.09.2022 23:00 8,3 C 13,7 C 5,1 C 7,2 C 5,1 C 0,0 C 88 % 95 % 1001,2 hPa 0,0 l/m 0,0 km/h (0 Bft) N 0,00 h 6,4 C 5,1 C 0,0 km/h (0 Bft)
29.09.2022 00:00 5,4 C 13,6 C 4,7 C 5,1 C 4,5 C 0,0 C 88 % 94 % 1001,5 hPa 0,0 l/m 0,0 km/h (0 Bft) N 0,00 h 3,6 C 4,5 C 0,0 km/h (0 Bft)
29.09.2022 01:00 4,3 C 13,6 C 4,2 C 4,2 C 4,0 C 0,0 C 88 % 94 % 1001,7 hPa 0,0 l/m 0,0 km/h (0 Bft) N 0,00 h 2,5 C 4,0 C 0,0 km/h (0 Bft)
29.09.2022 02:00 3,6 C 13,5 C 3,8 C 3,6 C 3,5 C 0,1 C 89 % 94 % 1001,9 hPa 0,0 l/m 0,0 km/h (0 Bft) N 0,00 h 2,0 C 3,5 C 0,0 km/h (0 Bft)
29.09.2022 03:00 3,4 C 13,4 C 4,2 C 4,2 C 4,2 C 0,8 C 89 % 94 % 1002,3 hPa 0,0 l/m 0,0 km/h (0 Bft) N 0,00 h 1,7 C 4,2 C 0,0 km/h (0 Bft)
29.09.2022 04:00 3,5 C 13,3 C 4,4 C 4,5 C 4,5 C 0,9 C 88 % 94 % 1002,5 hPa 0,0 l/m 0,0 km/h (0 Bft) N 0,00 h 1,8 C 4,5 C 0,0 km/h (0 Bft)
29.09.2022 05:00 3,2 C 13,2 C 3,9 C 3,7 C 3,7 C 0,5 C 89 % 94 % 1002,8 hPa 0,0 l/m 0,0 km/h (0 Bft) N 0,00 h 1,5 C 3,7 C 0,0 km/h (0 Bft)
29.09.2022 06:00 2,9 C 13,2 C 3,7 C 3,6 C 3,6 C 0,7 C 89 % 94 % 1003,0 hPa 0,0 l/m 0,0 km/h (0 Bft) N 0,00 h 1,3 C 3,6 C 0,0 km/h (0 Bft)
29.09.2022 07:00 3,1 C 13,1 C 4,3 C 4,5 C 4,5 C 1,4 C 89 % 94 % 1003,4 hPa 0,0 l/m 0,0 km/h (0 Bft) N 0,65 h 1,4 C 4,5 C 0,0 km/h (0 Bft)
29.09.2022 08:00 3,7 C 13,1 C 5,0 C 5,8 C 5,8 C 2,1 C 89 % 94 % 1003,2 hPa 0,0 l/m 0,0 km/h (0 Bft) N 0,65 h 2,0 C 5,8 C 0,0 km/h (0 Bft)
29.09.2022 09:00 5,3 C 13,0 C 6,8 C 8,1 C 8,1 C 2,9 C 89 % 94 % 1003,0 hPa 0,0 l/m 0,0 km/h (0 Bft) N 0,33 h 3,6 C 8,1 C 0,0 km/h (0 Bft)
29.09.2022 10:00 7,3 C 12,8 C 8,8 C 10,6 C 10,6 C 3,3 C 90 % 94 % 1003,3 hPa 0,0 l/m 0,6 km/h (0 Bft) S 0,48 h 5,7 C 10,6 C 1,5 km/h (1 Bft)
29.09.2022 11:00 8,0 C 12,7 C 9,7 C 12,5 C 12,5 C 4,6 C 89 % 94 % 1003,3 hPa 0,0 l/m 0,3 km/h (0 Bft) SW 1,00 h 6,3 C 12,5 C 1,1 km/h (1 Bft)
29.09.2022 12:00 10,0 C 12,7 C 11,0 C 16,6 C 16,6 C 6,7 C 88 % 95 % 1003,6 hPa 0,0 l/m 0,5 km/h (0 Bft) N 1,00 h 8,2 C 16,6 C 1,4 km/h (1 Bft)
29.09.2022 13:00 15,0 C 12,7 C 13,0 C 23,1 C 23,1 C 8,0 C 79 % 95 % 1003,8 hPa 0,0 l/m 0,5 km/h (0 Bft) O-NO 0,92 h 11,4 C 23,1 C 0,8 km/h (0 Bft)
29.09.2022 14:00 14,8 C 12,9 C 13,0 C 19,8 C 19,8 C 5,0 C 69 % 94 % 1003,9 hPa 0,0 l/m 0,3 km/h (0 Bft) W-SW 0,83 h 9,1 C 19,8 C 0,7 km/h (0 Bft)
29.09.2022 15:00 14,4 C 13,0 C 12,9 C 16,8 C 16,8 C 2,4 C 69 % 92 % 1004,0 hPa 0,0 l/m 0,1 km/h (0 Bft) N 0,17 h 8,8 C 16,8 C 0,2 km/h (0 Bft)
29.09.2022 16:00 14,3 C 13,1 C 13,2 C 16,7 C 16,7 C 2,4 C 69 % 89 % 1004,1 hPa 0,0 l/m 0,0 km/h (0 Bft) N 0,17 h 8,6 C 16,7 C 0,0 km/h (0 Bft)
29.09.2022 17:00 13,9 C 13,2 C 12,4 C 14,4 C 14,3 C 0,6 C 70 % 89 % 1004,6 hPa 0,0 l/m 0,0 km/h (0 Bft) N 0,00 h 8,6 C 14,3 C 0,0 km/h (0 Bft)
29.09.2022 18:00 12,3 C 13,5 C 10,8 C 12,1 C 11,6 C 0,0 C 77 % 91 % 1005,6 hPa 0,0 l/m 0,0 km/h (0 Bft) N 0,00 h 8,3 C 11,6 C 0,0 km/h (0 Bft)
29.09.2022 19:00 11,0 C 13,7 C 9,7 C 10,7 C 10,1 C 0,0 C 82 % 93 % 1006,1 hPa 0,0 l/m 0,0 km/h (0 Bft) N 0,00 h 8,0 C 10,1 C 0,0 km/h (0 Bft)
29.09.2022 20:00 9,9 C 13,8 C 8,9 C 9,6 C 9,0 C 0,0 C 85 % 94 % 1006,2 hPa 0,0 l/m 0,0 km/h (0 Bft) N 0,00 h 7,5 C 9,0 C 0,0 km/h (0 Bft)
29.09.2022 21:00 9,5 C 13,9 C 8,7 C 9,2 C 8,8 C 0,0 C 86 % 94 % 1006,6 hPa 0,0 l/m 0,0 km/h (0 Bft) N 0,00 h 7,3 C 8,8 C 0,0 km/h (0 Bft)
29.09.2022 22:00 9,2 C 14,0 C 8,6 C 9,1 C 8,9 C 0,0 C 87 % 94 % 1007,3 hPa 0,0 l/m 0,0 km/h (0 Bft) N 0,00 h 7,1 C 8,9 C 0,0 km/h (0 Bft)
29.09.2022 23:00 8,8 C 14,0 C 8,3 C 8,7 C 8,4 C 0,0 C 88 % 94 % 1007,7 hPa 0,0 l/m 0,0 km/h (0 Bft) N 0,00 h 6,9 C 8,4 C 0,0 km/h (0 Bft)
30.09.2022 00:00 8,2 C 14,0 C 7,6 C 8,0 C 7,6 C 0,0 C 88 % 95 % 1008,0 hPa 0,0 l/m 0,0 km/h (0 Bft) N 0,00 h 6,4 C 7,6 C 0,0 km/h (0 Bft)
30.09.2022 01:00 7,8 C 13,9 C 7,5 C 7,8 C 7,7 C 0,0 C 88 % 95 % 1008,3 hPa 0,0 l/m 0,0 km/h (0 Bft) N 0,00 h 5,9 C 7,7 C 0,0 km/h (0 Bft)
30.09.2022 02:00 7,6 C 13,9 C 7,5 C 7,6 C 7,6 C 0,1 C 88 % 95 % 1008,7 hPa 0,0 l/m 0,0 km/h (0 Bft) N 0,00 h 5,7 C 7,6 C 0,0 km/h (0 Bft)
30.09.2022 03:00 7,3 C 13,9 C 7,3 C 7,4 C 7,4 C 0,1 C 88 % 95 % 1009,0 hPa 0,0 l/m 0,0 km/h (0 Bft) N 0,00 h 5,5 C 7,4 C 0,0 km/h (0 Bft)
30.09.2022 04:00 7,1 C 13,9 C 7,4 C 7,5 C 7,5 C 0,4 C 88 % 95 % 1009,0 hPa 0,0 l/m 0,0 km/h (0 Bft) N 0,00 h 5,3 C 7,5 C 0,0 km/h (0 Bft)
30.09.2022 05:00 7,0 C 13,8 C 7,4 C 7,5 C 7,5 C 0,5 C 88 % 95 % 1009,5 hPa 0,0 l/m 0,0 km/h (0 Bft) N 0,00 h 5,1 C 7,5 C 0,0 km/h (0 Bft)
30.09.2022 06:00 6,8 C 13,8 C 7,1 C 7,2 C 7,2 C 0,5 C 88 % 95 % 1009,7 hPa 0,0 l/m 0,0 km/h (0 Bft) N 0,00 h 4,9 C 7,2 C 0,0 km/h (0 Bft)
30.09.2022 07:00 6,5 C 13,7 C 7,1 C 7,3 C 7,3 C 0,7 C 88 % 95 % 1010,2 hPa 0,0 l/m 0,0 km/h (0 Bft) N 0,47 h 4,7 C 7,3 C 0,0 km/h (0 Bft)
30.09.2022 08:00 6,6 C 13,7 C 7,7 C 8,2 C 8,2 C 1,5 C 88 % 95 % 1010,8 hPa 0,0 l/m 0,0 km/h (0 Bft) N 0,00 h 4,8 C 8,2 C 0,0 km/h (0 Bft)
30.09.2022 09:00 7,7 C 13,6 C 9,4 C 11,0 C 11,0 C 3,3 C 89 % 95 % 1011,3 hPa 0,0 l/m 0,0 km/h (0 Bft) N 0,67 h 5,9 C 11,0 C 0,0 km/h (0 Bft)
30.09.2022 10:00 9,1 C 13,4 C 10,1 C 12,2 C 12,2 C 3,1 C 88 % 95 % 1011,8 hPa 0,0 l/m 0,2 km/h (0 Bft) N 0,27 h 7,2 C 12,2 C 1,1 km/h (1 Bft)
30.09.2022 11:00 12,0 C 13,3 C 11,1 C 13,6 C 13,6 C 1,7 C 87 % 94 % 1012,1 hPa 0,0 l/m 0,3 km/h (0 Bft) N 0,00 h 9,9 C 13,6 C 1,8 km/h (1 Bft)
30.09.2022 12:00 14,1 C 13,4 C 12,4 C 17,7 C 17,7 C 3,7 C 78 % 89 % 1012,0 hPa 0,0 l/m 0,1 km/h (0 Bft) N 0,48 h 10,2 C 17,7 C 0,0 km/h (0 Bft)
30.09.2022 13:00 17,0 C 13,4 C 13,6 C 23,4 C 23,4 C 6,4 C 66 % 83 % 1012,1 hPa 0,0 l/m 0,3 km/h (0 Bft) N 1,00 h 10,5 C 23,4 C 0,6 km/h (0 Bft)
30.09.2022 14:00 17,6 C 13,5 C 14,6 C 22,2 C 22,2 C 4,7 C 61 % 80 % 1012,0 hPa 0,0 l/m 0,1 km/h (0 Bft) N 1,00 h 10,1 C 22,2 C 0,3 km/h (0 Bft)
30.09.2022 15:00 16,6 C 13,6 C 14,9 C 20,8 C 20,8 C 4,1 C 63 % 78 % 1011,9 hPa 0,0 l/m 0,1 km/h (0 Bft) N 1,00 h 9,5 C 20,8 C 0,0 km/h (0 Bft)
30.09.2022 16:00 16,6 C 13,7 C 15,1 C 19,0 C 19,0 C 2,4 C 63 % 76 % 1012,0 hPa 0,0 l/m 0,0 km/h (0 Bft) N 0,27 h 9,5 C 19,0 C 0,0 km/h (0 Bft)
30.09.2022 17:00 15,7 C 13,8 C 14,0 C 15,8 C 15,7 C 0,2 C 65 % 77 % 1012,0 hPa 0,0 l/m 0,0 km/h (0 Bft) N 0,00 h 9,0 C 15,7 C 0,1 km/h (0 Bft)
30.09.2022 18:00 14,0 C 14,0 C 12,2 C 13,7 C 13,2 C 0,0 C 73 % 83 % 1012,2 hPa 0,0 l/m 0,0 km/h (0 Bft) N 0,00 h 9,2 C 13,2 C 0,0 km/h (0 Bft)
30.09.2022 19:00 11,8 C 14,3 C 9,9 C 11,2 C 9,9 C 0,0 C 79 % 88 % 1012,4 hPa 0,0 l/m 0,0 km/h (0 Bft) N 0,00 h 8,2 C 9,9 C 0,0 km/h (0 Bft)
30.09.2022 20:00 9,9 C 14,4 C 8,6 C 9,4 C 8,5 C 0,0 C 83 % 91 % 1012,6 hPa 0,0 l/m 0,0 km/h (0 Bft) N 0,00 h 7,1 C 8,5 C 0,0 km/h (0 Bft)
30.09.2022 21:00 8,8 C 14,4 C 7,7 C 8,3 C 7,4 C 0,0 C 84 % 93 % 1012,6 hPa 0,0 l/m 0,0 km/h (0 Bft) N 0,00 h 6,3 C 7,4 C 0,0 km/h (0 Bft)
30.09.2022 22:00 7,9 C 14,4 C 6,9 C 7,6 C 7,0 C 0,0 C 87 % 93 % 1012,6 hPa 0,0 l/m 0,0 km/h (0 Bft) N 0,00 h 5,8 C 7,0 C 0,0 km/h (0 Bft)
30.09.2022 23:00 7,2 C 14,3 C 6,2 C 6,8 C 6,1 C 0,0 C 87 % 94 % 1012,9 hPa 0,0 l/m 0,0 km/h (0 Bft) N 0,00 h 5,1 C 6,1 C 0,0 km/h (0 Bft)
01.10.2022 00:00 6,3 C 14,2 C 5,5 C 6,0 C 5,3 C 0,0 C 88 % 94 % 1012,6 hPa 0,0 l/m 0,0 km/h (0 Bft) N 0,00 h 4,4 C 5,3 C 0,0 km/h (0 Bft)
01.10.2022 01:00 5,7 C 14,1 C 5,1 C 5,5 C 5,0 C 0,0 C 88 % 94 % 1013,0 hPa 0,0 l/m 0,0 km/h (0 Bft) N 0,00 h 3,9 C 5,0 C 0,0 km/h (0 Bft)
01.10.2022 02:00 5,2 C 14,0 C 4,8 C 5,0 C 4,6 C 0,0 C 88 % 94 % 1012,8 hPa 0,0 l/m 0,0 km/h (0 Bft) N 0,00 h 3,4 C 4,6 C 0,0 km/h (0 Bft)
01.10.2022 03:00 4,7 C 13,9 C 4,3 C 4,5 C 4,1 C 0,0 C 88 % 94 % 1012,4 hPa 0,0 l/m 0,0 km/h (0 Bft) N 0,00 h 2,9 C 4,1 C 0,0 km/h (0 Bft)
01.10.2022 04:00 4,2 C 13,8 C 4,0 C 4,0 C 3,8 C 0,0 C 88 % 95 % 1012,2 hPa 0,0 l/m 0,0 km/h (0 Bft) N 0,00 h 2,4 C 3,8 C 0,0 km/h (0 Bft)
01.10.2022 05:00 4,1 C 13,7 C 4,2 C 4,2 C 4,2 C 0,2 C 88 % 95 % 1011,7 hPa 0,0 l/m 0,0 km/h (0 Bft) N 0,00 h 2,3 C 4,2 C 0,0 km/h (0 Bft)
01.10.2022 06:00 4,0 C 13,6 C 4,6 C 4,7 C 4,7 C 0,7 C 88 % 95 % 1011,3 hPa 0,0 l/m 0,0 km/h (0 Bft) N 0,00 h 2,2 C 4,7 C 0,0 km/h (0 Bft)
01.10.2022 07:00 4,4 C 13,5 C 5,3 C 5,8 C 5,8 C 1,4 C 88 % 95 % 1011,2 hPa 0,0 l/m 0,0 km/h (0 Bft) N 0,67 h 2,6 C 5,8 C 0,0 km/h (0 Bft)
01.10.2022 08:00 5,6 C 13,2 C 7,0 C 7,8 C 7,8 C 2,2 C 89 % 95 % 1010,5 hPa 0,0 l/m 0,1 km/h (0 Bft) N 0,75 h 3,9 C 7,8 C 0,1 km/h (0 Bft)
01.10.2022 09:00 7,2 C 13,1 C 8,7 C 9,4 C 9,4 C 2,2 C 89 % 95 % 1010,0 hPa 0,0 l/m 0,4 km/h (0 Bft) S-SO 0,00 h 5,5 C 9,4 C 1,5 km/h (1 Bft)
01.10.2022 10:00 9,6 C 13,0 C 10,3 C 11,7 C 11,7 C 2,0 C 88 % 94 % 1009,4 hPa 0,0 l/m 2,9 km/h (1 Bft) S 0,00 h 7,8 C 11,7 C 5,6 km/h (1 Bft)
01.10.2022 11:00 11,8 C 13,0 C 11,0 C 12,1 C 12,0 C 0,3 C 82 % 89 % 1008,5 hPa 0,0 l/m 4,8 km/h (1 Bft) SO 0,00 h 8,9 C 12,0 C 10,1 km/h (2 Bft)
01.10.2022 12:00 11,0 C 13,1 C 10,2 C 10,7 C 10,0 C 0,0 C 81 % 89 % 1007,9 hPa 0,7 l/m 4,3 km/h (1 Bft) S 0,00 h 7,9 C 9,9 C 8,2 km/h (2 Bft)
01.10.2022 13:00 10,5 C 13,4 C 10,1 C 10,3 C 9,9 C 0,0 C 85 % 91 % 1007,8 hPa 0,7 l/m 4,4 km/h (1 Bft) SO 0,00 h 8,1 C 9,8 C 6,6 km/h (2 Bft)
01.10.2022 14:00 10,6 C 13,5 C 10,3 C 10,4 C 10,0 C 0,0 C 87 % 91 % 1007,9 hPa 0,7 l/m 4,7 km/h (1 Bft) S-SO 0,00 h 8,5 C 9,9 C 8,3 km/h (2 Bft)
01.10.2022 15:00 11,1 C 13,5 C 11,2 C 12,1 C 12,1 C 1,1 C 87 % 92 % 1007,7 hPa 0,0 l/m 5,1 km/h (1 Bft) S 0,00 h 9,1 C 12,0 C 7,7 km/h (2 Bft)
01.10.2022 16:00 12,2 C 13,4 C 11,8 C 13,3 C 13,3 C 1,1 C 84 % 88 % 1007,8 hPa 0,0 l/m 3,1 km/h (1 Bft) W-SW 0,00 h 9,6 C 13,3 C 4,7 km/h (1 Bft)
01.10.2022 17:00 12,3 C 13,4 C 11,5 C 12,7 C 12,7 C 0,4 C 83 % 88 % 1007,8 hPa 0,0 l/m 2,4 km/h (1 Bft) SW 0,00 h 9,5 C 12,7 C 6,4 km/h (2 Bft)
01.10.2022 18:00 12,2 C 13,5 C 11,3 C 12,3 C 12,3 C 0,1 C 84 % 89 % 1008,3 hPa 0,0 l/m 1,9 km/h (1 Bft) S-SO 0,08 h 9,4 C 12,3 C 3,2 km/h (1 Bft)
01.10.2022 19:00 12,3 C 13,6 C 11,2 C 12,3 C 12,2 C 0,0 C 84 % 90 % 1009,2 hPa 0,0 l/m 1,9 km/h (1 Bft) S 0,00 h 9,6 C 12,2 C 4,4 km/h (1 Bft)
01.10.2022 20:00 12,3 C 13,7 C 11,1 C 12,2 C 11,8 C 0,0 C 84 % 90 % 1009,7 hPa 0,0 l/m 1,2 km/h (1 Bft) S 0,00 h 9,7 C 11,8 C 1,9 km/h (1 Bft)
01.10.2022 21:00 12,1 C 13,7 C 10,7 C 11,8 C 11,2 C 0,0 C 85 % 91 % 1010,3 hPa 0,0 l/m 1,0 km/h (0 Bft) W-SW 0,00 h 9,5 C 11,2 C 2,1 km/h (1 Bft)
01.10.2022 22:00 11,9 C 13,8 C 10,6 C 11,8 C 11,4 C 0,0 C 85 % 91 % 1011,2 hPa 0,0 l/m 0,5 km/h (0 Bft) N 0,00 h 9,4 C 11,4 C 1,4 km/h (1 Bft)
01.10.2022 23:00 11,9 C 13,8 C 10,6 C 11,8 C 11,4 C 0,0 C 84 % 91 % 1012,1 hPa 0,0 l/m 0,2 km/h (0 Bft) N 0,00 h 9,3 C 11,4 C 0,4 km/h (0 Bft)
02.10.2022 00:00 11,8 C 13,8 C 10,6 C 11,7 C 11,4 C 0,0 C 84 % 91 % 1013,0 hPa 0,0 l/m 0,2 km/h (0 Bft) N 0,00 h 9,2 C 11,4 C 0,0 km/h (0 Bft)
02.10.2022 01:00 11,6 C 13,8 C 10,3 C 11,4 C 11,0 C 0,0 C 84 % 91 % 1013,8 hPa 0,0 l/m 0,3 km/h (0 Bft) N 0,00 h 9,0 C 11,0 C 1,1 km/h (0 Bft)
02.10.2022 02:00 11,3 C 13,9 C 10,0 C 11,1 C 10,6 C 0,0 C 84 % 90 % 1014,5 hPa 0,0 l/m 0,5 km/h (0 Bft) N 0,00 h 8,7 C 10,6 C 2,3 km/h (1 Bft)
02.10.2022 03:00 10,8 C 13,9 C 9,7 C 10,6 C 10,1 C 0,0 C 85 % 91 % 1014,8 hPa 0,0 l/m 0,4 km/h (0 Bft) N 0,00 h 8,3 C 10,1 C 1,2 km/h (1 Bft)
02.10.2022 04:00 10,8 C 13,8 C 9,9 C 10,7 C 10,5 C 0,0 C 85 % 91 % 1015,4 hPa 0,0 l/m 1,0 km/h (0 Bft) O-SO 0,00 h 8,4 C 10,5 C 2,1 km/h (1 Bft)
02.10.2022 05:00 10,7 C 13,8 C 9,7 C 10,6 C 10,2 C 0,0 C 84 % 90 % 1015,8 hPa 0,0 l/m 0,7 km/h (0 Bft) N 0,00 h 8,1 C 10,2 C 1,5 km/h (1 Bft)
02.10.2022 06:00 10,1 C 13,8 C 8,8 C 9,8 C 9,2 C 0,0 C 85 % 91 % 1015,7 hPa 0,0 l/m 0,8 km/h (0 Bft) S 0,00 h 7,6 C 9,2 C 1,7 km/h (1 Bft)
02.10.2022 07:00 10,0 C 13,8 C 8,9 C 10,0 C 9,7 C 0,2 C 86 % 92 % 1015,7 hPa 0,0 l/m 0,8 km/h (0 Bft) S 0,08 h 7,7 C 9,7 C 2,1 km/h (1 Bft)
02.10.2022 08:00 11,1 C 13,7 C 10,0 C 11,8 C 11,8 C 0,8 C 86 % 92 % 1015,9 hPa 0,0 l/m 0,7 km/h (0 Bft) S 0,17 h 8,7 C 11,8 C 2,5 km/h (1 Bft)
02.10.2022 09:00 12,5 C 13,8 C 11,5 C 13,2 C 13,2 C 0,7 C 85 % 90 % 1015,9 hPa 0,0 l/m 1,2 km/h (1 Bft) SW 0,00 h 9,9 C 13,2 C 2,3 km/h (1 Bft)
02.10.2022 10:00 13,8 C 13,8 C 12,9 C 14,8 C 14,8 C 1,0 C 82 % 88 % 1016,0 hPa 0,0 l/m 1,1 km/h (1 Bft) SW 0,00 h 10,8 C 14,8 C 1,4 km/h (1 Bft)
02.10.2022 11:00 15,1 C 13,8 C 14,7 C 15,0 C 14,9 C 0,0 C 79 % 84 % 1015,7 hPa 0,0 l/m 0,0 km/h (0 Bft) N 0,00 h 11,5 C 14,9 C 0,0 km/h (0 Bft)
02.10.2022 12:00 13,9 C 14,2 C 13,3 C 14,9 C 14,9 C 1,0 C 82 % 87 % 1015,8 hPa 1,4 l/m 0,0 km/h (0 Bft) N 0,00 h 10,9 C 14,9 C 0,0 km/h (0 Bft)
02.10.2022 13:00 13,0 C 14,3 C 12,9 C 14,0 C 14,0 C 1,0 C 86 % 91 % 1015,6 hPa 0,0 l/m 0,0 km/h (0 Bft) N 0,00 h 10,7 C 14,0 C 0,2 km/h (0 Bft)
02.10.2022 14:00 14,8 C 14,2 C 14,5 C 18,9 C 18,9 C 4,0 C 85 % 90 % 1015,3 hPa 0,0 l/m 0,3 km/h (0 Bft) N 0,83 h 12,4 C 18,9 C 0,1 km/h (0 Bft)
02.10.2022 15:00 15,2 C 14,2 C 14,6 C 16,8 C 16,8 C 1,6 C 81 % 86 % 1015,3 hPa 0,0 l/m 0,5 km/h (0 Bft) S-SW 0,08 h 11,9 C 16,8 C 0,7 km/h (0 Bft)
02.10.2022 16:00 14,7 C 14,3 C 14,0 C 15,9 C 15,9 C 1,2 C 80 % 86 % 1015,3 hPa 0,0 l/m 0,1 km/h (0 Bft) N 0,00 h 11,2 C 15,9 C 0,0 km/h (0 Bft)
02.10.2022 17:00 14,4 C 14,4 C 13,3 C 14,5 C 14,5 C 0,1 C 80 % 87 % 1015,4 hPa 0,0 l/m 0,0 km/h (0 Bft) N 0,00 h 11,0 C 14,5 C 0,0 km/h (0 Bft)
02.10.2022 18:00 14,2 C 14,4 C 12,9 C 14,2 C 14,0 C 0,2 C 79 % 87 % 1016,0 hPa 0,7 l/m 0,1 km/h (0 Bft) N 0,00 h 10,6 C 14,0 C 0,0 km/h (0 Bft)
02.10.2022 19:00 12,3 C 14,6 C 11,0 C 11,8 C 11,0 C 0,0 C 83 % 90 % 1016,7 hPa 0,0 l/m 0,0 km/h (0 Bft) N 0,00 h 9,5 C 11,0 C 0,0 km/h (0 Bft)
02.10.2022 20:00 11,1 C 14,8 C 9,7 C 10,6 C 9,7 C 0,0 C 85 % 92 % 1017,2 hPa 0,0 l/m 0,0 km/h (0 Bft) N 0,00 h 8,7 C 9,7 C 0,0 km/h (0 Bft)
02.10.2022 21:00 10,1 C 14,9 C 8,8 C 9,8 C 9,2 C 0,0 C 87 % 94 % 1017,7 hPa 0,0 l/m 0,0 km/h (0 Bft) N 0,00 h 8,0 C 9,2 C 0,0 km/h (0 Bft)
02.10.2022 22:00 10,2 C 14,7 C 9,5 C 10,1 C 9,9 C 0,0 C 88 % 94 % 1018,5 hPa 0,0 l/m 0,0 km/h (0 Bft) N 0,00 h 8,3 C 9,9 C 0,0 km/h (0 Bft)
02.10.2022 23:00 10,3 C 14,6 C 9,4 C 10,0 C 9,6 C 0,0 C 88 % 94 % 1019,1 hPa 0,0 l/m 0,0 km/h (0 Bft) N 0,00 h 8,4 C 9,6 C 0,0 km/h (0 Bft)
Min-Datum _ 29.09.22 29.09.22 29.09.22 29.09.22 29.09.22 26.09.22 26.09.22 26.09.22 27.09.22 - 26.09.22 - - 29.09.22 29.09.22 26.09.22
_ Min-Zeit 06:25 11:40 05:45 05:45 05:45 00:00 15:40 16:00 09:05 - 00:11 - - 06:25 05:45 00:00
Minimum _ 2,8 C 12,6 C 3,5 C 3,0 C 3,0 C 0,0 C 60 % 67 % 994,9 hPa - 0,0 km/h (0 Bft) - - 1,2 C 3,0 C 0,0 km/h (0 Bft)
Max-Datum _ 30.09.22 26.09.22 26.09.22 29.09.22 29.09.22 29.09.22 29.09.22 27.09.22 02.10.22 28.09.22 01.10.22 - 26.09.22 02.10.22 29.09.22 01.10.22
_ Max-Zeit 14:00 00:00 14:26 13:20 13:20 13:05 09:50 23:40 23:45 11:10 15:55 - 10:31 14:25 13:20 11:50
Maximum _ 18,3 C 16,0 C 15,7 C 25,2 C 25,2 C 10,6 C 90 % 95 % 1019,4 hPa 2,7 l/m 6,6 km/h
S (2 Bft)
- 0,33 h 12,9 C 25,2 C 22,4 km/h
SO (4 Bft)
Durchschnitt _ 9,9 C 14,2 C 9,5 C 10,8 C 10,6 C 1,0 C 84 % 91 % 1006,0 hPa #20,6 l/m 0,5 km/h (0 Bft) S #22:05 h 7,2 C 10,5 C 1,0 km/h (0 Bft)
2022 www.wetterstation-wechselburg.de